Time;durP1;ratioP1;P1;durP2;ratioP2;P2;SDS_P1;SDS_P2;PMS_P1;PMS_P2;Temp;Humidity;BMP_temperature;BMP_pressure;BME280_temperature;BME280_humidity;BME280_pressure;Samples;Min_cycle;Max_cycle;Signal;HPM_P1;HPM_P2
2023/12/18 00:00:39;;;;;;;14.50;6.17;;;8.90;99.90;;;;;;5073217;28;20191;-74
2023/12/18 00:03:05;;;;;;;11.27;5.07;;;8.90;99.90;;;;;;5075309;28;20408;-69
2023/12/18 00:05:30;;;;;;;11.83;6.20;;;8.90;99.90;;;;;;5074730;28;20518;-74
2023/12/18 00:07:56;;;;;;;11.53;6.00;;;8.90;99.90;;;;;;5067459;28;20218;-71
2023/12/18 00:10:22;;;;;;;11.73;6.90;;;8.90;99.90;;;;;;5075061;28;20182;-68
2023/12/18 00:12:48;;;;;;;15.03;5.87;;;8.80;99.90;;;;;;5073597;28;20171;-67
2023/12/18 00:15:13;;;;;;;14.93;6.23;;;8.80;99.90;;;;;;5073316;28;20933;-67
2023/12/18 00:17:39;;;;;;;15.20;7.10;;;8.80;99.90;;;;;;5074471;28;20198;-68
2023/12/18 00:20:05;;;;;;;13.87;5.90;;;8.80;99.90;;;;;;5075414;28;20167;-74
2023/12/18 00:22:31;;;;;;;11.23;6.77;;;8.80;99.90;;;;;;5073129;28;20170;-72
2023/12/18 00:24:57;;;;;;;15.07;6.60;;;8.80;99.90;;;;;;5074268;28;20426;-73
2023/12/18 00:27:22;;;;;;;15.17;7.30;;;8.80;99.90;;;;;;5073732;28;20215;-68
2023/12/18 00:29:48;;;;;;;13.27;6.10;;;8.80;99.90;;;;;;5062199;28;20169;-69
2023/12/18 00:32:14;;;;;;;10.67;6.07;;;8.80;99.90;;;;;;5054922;28;20174;-66
2023/12/18 00:34:40;;;;;;;21.43;6.90;;;8.80;99.90;;;;;;5055781;28;20469;-69
2023/12/18 00:37:06;;;;;;;15.23;7.00;;;8.80;99.90;;;;;;5073412;28;20210;-67
2023/12/18 00:39:32;;;;;;;18.70;7.13;;;8.90;99.90;;;;;;5074899;28;20440;-73
2023/12/18 00:41:58;;;;;;;19.13;6.93;;;8.90;99.90;;;;;;5069302;28;20990;-67
2023/12/18 00:44:23;;;;;;;14.40;6.00;;;8.90;99.90;;;;;;5074774;28;20617;-67
2023/12/18 00:46:49;;;;;;;10.60;6.27;;;8.80;99.90;;;;;;5068195;28;20201;-67
2023/12/18 00:49:15;;;;;;;18.03;5.67;;;8.80;99.90;;;;;;5068873;28;20237;-67
2023/12/18 00:51:41;;;;;;;19.13;6.03;;;8.80;99.90;;;;;;5073727;28;20250;-70
2023/12/18 00:54:07;;;;;;;23.67;6.53;;;8.80;99.90;;;;;;5052199;28;20380;-73
2023/12/18 00:56:33;;;;;;;13.53;5.67;;;8.80;99.90;;;;;;5035691;28;20178;-73
2023/12/18 00:58:59;;;;;;;15.20;7.20;;;8.80;99.90;;;;;;5054468;28;20451;-67
2023/12/18 01:01:25;;;;;;;10.20;5.80;;;8.80;99.90;;;;;;5061544;28;20667;-74
2023/12/18 01:03:50;;;;;;;16.50;5.43;;;8.80;99.90;;;;;;5074566;28;20531;-66
2023/12/18 01:06:16;;;;;;;17.80;6.37;;;8.80;99.90;;;;;;5072183;28;20248;-69
2023/12/18 01:08:42;;;;;;;20.83;7.30;;;8.80;99.90;;;;;;5061063;28;20237;-67
2023/12/18 01:11:07;;;;;;;11.60;6.20;;;8.80;99.90;;;;;;5074077;28;20167;-74
2023/12/18 01:13:33;;;;;;;18.33;6.80;;;8.80;99.90;;;;;;5055670;28;20197;-68
2023/12/18 01:15:59;;;;;;;13.60;6.10;;;8.70;99.90;;;;;;5051578;28;20180;-74
2023/12/18 01:18:25;;;;;;;10.63;7.00;;;8.80;99.90;;;;;;5054231;28;20199;-74
2023/12/18 01:20:51;;;;;;;19.03;6.40;;;8.70;99.90;;;;;;5053464;28;20404;-66
2023/12/18 01:23:16;;;;;;;19.03;6.70;;;8.70;99.90;;;;;;5065973;28;20165;-69
2023/12/18 01:25:42;;;;;;;10.80;5.60;;;8.70;99.90;;;;;;5060086;28;20245;-72
2023/12/18 01:28:08;;;;;;;16.97;6.80;;;8.60;99.90;;;;;;5054024;28;20191;-74
2023/12/18 01:30:33;;;;;;;11.53;6.43;;;8.60;99.90;;;;;;5054005;28;20177;-66
2023/12/18 01:32:59;;;;;;;13.73;6.20;;;8.60;99.90;;;;;;5053440;28;20296;-73
2023/12/18 01:35:25;;;;;;;15.47;7.50;;;8.50;99.90;;;;;;5053295;28;20633;-67
2023/12/18 01:37:51;;;;;;;22.37;8.43;;;8.60;99.90;;;;;;5064158;28;20277;-73
2023/12/18 01:40:16;;;;;;;10.20;6.57;;;8.50;99.90;;;;;;5072647;28;20768;-71
2023/12/18 01:42:45;;;;;;;14.47;6.30;;;8.50;99.90;;;;;;5072544;28;20182;-67
2023/12/18 01:45:11;;;;;;;9.93;6.73;;;8.50;99.90;;;;;;5072839;28;20191;-67
2023/12/18 01:47:37;;;;;;;11.23;8.80;;;8.50;99.90;;;;;;5073811;28;21009;-73
2023/12/18 01:50:05;;;;;;;18.43;7.43;;;8.50;99.90;;;;;;5074343;28;20224;-67
2023/12/18 01:52:31;;;;;;;22.80;6.87;;;8.50;99.90;;;;;;5072121;28;20420;-70
2023/12/18 01:54:57;;;;;;;17.00;7.10;;;8.50;99.90;;;;;;5073039;28;20421;-73
2023/12/18 01:57:23;;;;;;;8.83;6.73;;;8.40;99.90;;;;;;5073035;28;20428;-66
2023/12/18 01:59:50;;;;;;;26.13;8.10;;;8.40;1.00;;;;;;5072540;28;20419;-66
2023/12/18 02:02:16;;;;;;;15.60;7.63;;;8.40;1.00;;;;;;5072272;28;20395;-67
2023/12/18 02:04:42;;;;;;;16.73;7.67;;;8.40;1.00;;;;;;5064637;28;20842;-69
2023/12/18 02:07:09;;;;;;;21.97;6.77;;;8.40;1.00;;;;;;5072280;28;20421;-73
2023/12/18 02:09:35;;;;;;;13.33;7.50;;;8.50;1.00;;;;;;5072929;28;20399;-70
2023/12/18 02:12:02;;;;;;;10.13;6.27;;;8.50;1.00;;;;;;5074318;28;20397;-71
2023/12/18 02:14:28;;;;;;;17.53;8.30;;;8.50;1.00;;;;;;5073675;28;20402;-66
2023/12/18 02:16:53;;;;;;;10.23;6.60;;;8.50;1.00;;;;;;5072010;28;20391;-67
2023/12/18 02:19:29;;;;;;;16.20;7.77;;;8.50;1.00;;;;;;5069738;28;20604;-73
2023/12/18 02:21:56;;;;;;;14.07;7.73;;;8.50;1.00;;;;;;5053287;28;20172;-72
2023/12/18 02:24:22;;;;;;;14.83;6.90;;;8.50;1.00;;;;;;5053031;28;20445;-70
2023/12/18 02:26:48;;;;;;;12.80;7.13;;;8.50;1.00;;;;;;5052085;28;20879;-72
2023/12/18 02:29:14;;;;;;;8.60;7.70;;;8.50;1.00;;;;;;5069485;28;20236;-66
2023/12/18 02:31:40;;;;;;;13.47;8.30;;;8.50;1.00;;;;;;5070532;28;20425;-72
2023/12/18 02:34:06;;;;;;;12.03;7.17;;;8.50;1.00;;;;;;5070945;28;20471;-66
2023/12/18 02:36:32;;;;;;;8.10;5.13;;;8.40;1.00;;;;;;5056546;28;20167;-71
2023/12/18 02:38:57;;;;;;;13.40;7.60;;;8.40;1.00;;;;;;5060940;28;20646;-67
2023/12/18 02:41:23;;;;;;;17.23;8.57;;;8.40;1.00;;;;;;5056544;28;20744;-66
2023/12/18 02:43:49;;;;;;;18.43;7.33;;;8.40;1.00;;;;;;5056768;28;20619;-72
2023/12/18 02:46:14;;;;;;;7.53;6.70;;;8.40;1.00;;;;;;5055679;28;20191;-66
2023/12/18 02:48:40;;;;;;;16.43;7.70;;;8.40;1.00;;;;;;5051655;28;20203;-65
2023/12/18 02:51:06;;;;;;;15.40;7.80;;;8.40;1.00;;;;;;5058199;28;20171;-66
2023/12/18 02:53:32;;;;;;;14.20;8.57;;;8.30;1.00;;;;;;5072347;28;20228;-66
2023/12/18 02:55:57;;;;;;;9.70;6.30;;;8.40;1.00;;;;;;5075763;28;20732;-66
2023/12/18 02:58:24;;;;;;;7.97;7.03;;;8.40;1.00;;;;;;5074250;28;20221;-66
2023/12/18 03:00:49;;;;;;;15.87;7.50;;;8.30;1.00;;;;;;5069745;28;20183;-72
2023/12/18 03:03:15;;;;;;;14.47;6.73;;;8.30;1.00;;;;;;5055290;28;20420;-65
2023/12/18 03:05:41;;;;;;;15.37;9.57;;;8.30;1.00;;;;;;5072369;28;20170;-72
2023/12/18 03:08:07;;;;;;;12.77;5.60;;;8.30;1.00;;;;;;5064700;28;20440;-67
2023/12/18 03:10:33;;;;;;;17.47;8.37;;;8.30;1.00;;;;;;5056451;28;20462;-72
2023/12/18 03:12:59;;;;;;;9.87;7.40;;;8.30;1.00;;;;;;5053960;28;20620;-67
2023/12/18 03:15:25;;;;;;;19.33;9.50;;;8.40;1.00;;;;;;5055561;28;20177;-66
2023/12/18 03:17:50;;;;;;;7.60;6.80;;;8.40;1.00;;;;;;5056242;28;20197;-73
2023/12/18 03:20:16;;;;;;;18.87;7.67;;;8.40;1.00;;;;;;5056393;28;20402;-67
2023/12/18 03:22:42;;;;;;;14.23;8.37;;;8.40;1.00;;;;;;5060574;28;20185;-66
2023/12/18 03:25:08;;;;;;;17.13;9.60;;;8.40;1.00;;;;;;5070180;28;20179;-66
2023/12/18 03:27:33;;;;;;;15.03;8.53;;;8.30;1.00;;;;;;5056182;28;20183;-72
2023/12/18 03:29:59;;;;;;;15.90;7.97;;;8.30;1.00;;;;;;5055042;28;20657;-68
2023/12/18 03:32:25;;;;;;;12.33;7.43;;;8.30;1.00;;;;;;5055490;28;20229;-73
2023/12/18 03:34:51;;;;;;;13.23;7.70;;;8.30;1.00;;;;;;5055453;28;20160;-69
2023/12/18 03:37:16;;;;;;;17.10;7.37;;;8.30;1.00;;;;;;5055807;28;20668;-68
2023/12/18 03:39:42;;;;;;;11.23;8.73;;;8.30;1.00;;;;;;5056028;28;20640;-72
2023/12/18 03:42:08;;;;;;;11.07;7.50;;;8.30;1.00;;;;;;5055444;28;20171;-67
2023/12/18 03:44:33;;;;;;;13.57;8.77;;;8.30;1.00;;;;;;5055561;28;20175;-71
2023/12/18 03:46:59;;;;;;;10.17;7.27;;;8.30;1.00;;;;;;5054380;28;20188;-67
2023/12/18 03:49:25;;;;;;;14.57;7.87;;;8.30;1.00;;;;;;5056043;28;20167;-66
2023/12/18 03:51:52;;;;;;;16.47;8.40;;;8.30;1.00;;;;;;5054462;28;20206;-71
2023/12/18 03:54:18;;;;;;;11.20;7.80;;;8.30;1.00;;;;;;5072245;28;20205;-66
2023/12/18 03:56:44;;;;;;;12.47;9.27;;;8.30;1.00;;;;;;5074814;28;20444;-67
2023/12/18 03:59:09;;;;;;;12.27;10.47;;;8.30;1.00;;;;;;5075782;28;20198;-72
2023/12/18 04:01:35;;;;;;;10.50;7.83;;;8.30;1.00;;;;;;5067502;28;20249;-72
2023/12/18 04:04:02;;;;;;;17.13;8.50;;;8.30;1.00;;;;;;5075253;28;20163;-68
2023/12/18 04:06:28;;;;;;;18.00;8.30;;;8.30;1.00;;;;;;5074810;28;20393;-71
2023/12/18 04:08:54;;;;;;;25.83;10.73;;;8.30;1.00;;;;;;5074470;28;20485;-72
2023/12/18 04:11:21;;;;;;;15.20;8.90;;;8.30;1.00;;;;;;5074312;28;20490;-66
2023/12/18 04:13:47;;;;;;;15.67;9.20;;;8.30;1.00;;;;;;5075451;28;20408;-68
2023/12/18 04:16:14;;;;;;;14.10;8.47;;;8.30;1.00;;;;;;5074690;28;20409;-66
2023/12/18 04:18:39;;;;;;;13.70;9.70;;;8.30;1.00;;;;;;5073903;28;20862;-67
2023/12/18 04:21:05;;;;;;;12.20;10.07;;;8.40;1.00;;;;;;5072394;28;20520;-68
2023/12/18 04:23:31;;;;;;;11.73;8.07;;;8.40;1.00;;;;;;5066978;28;20203;-69
2023/12/18 04:25:57;;;;;;;20.50;9.67;;;8.30;1.00;;;;;;5073223;28;20664;-67
2023/12/18 04:28:22;;;;;;;19.00;9.40;;;8.40;1.00;;;;;;5071994;28;20276;-71
2023/12/18 04:30:48;;;;;;;7.67;6.67;;;8.40;1.00;;;;;;5073814;28;20178;-71
2023/12/18 04:33:14;;;;;;;20.80;11.23;;;8.30;1.00;;;;;;5074965;28;20171;-69
2023/12/18 04:35:40;;;;;;;28.63;9.40;;;8.30;1.00;;;;;;5073602;28;20214;-72
2023/12/18 04:38:06;;;;;;;12.80;8.17;;;8.30;1.00;;;;;;5073808;28;20457;-68
2023/12/18 04:40:32;;;;;;;18.87;10.67;;;8.30;1.00;;;;;;5074780;28;20401;-72
2023/12/18 04:42:57;;;;;;;16.17;9.60;;;8.30;1.00;;;;;;5072989;28;20263;-72
2023/12/18 04:45:23;;;;;;;16.60;10.00;;;8.30;1.00;;;;;;5074098;28;20174;-73
2023/12/18 04:47:48;;;;;;;13.73;9.67;;;8.30;1.00;;;;;;5061212;28;20191;-73
2023/12/18 04:50:14;;;;;;;18.57;11.40;;;8.30;1.00;;;;;;5054676;28;20165;-73
2023/12/18 04:52:41;;;;;;;18.83;9.30;;;8.30;1.00;;;;;;5057190;28;20197;-69
2023/12/18 04:55:07;;;;;;;13.60;8.60;;;8.30;1.00;;;;;;5063352;28;20208;-73
2023/12/18 04:57:33;;;;;;;16.33;11.40;;;8.30;1.00;;;;;;5051317;28;20442;-67
2023/12/18 04:59:59;;;;;;;16.33;9.97;;;8.30;1.00;;;;;;5052949;28;20501;-67
2023/12/18 05:02:24;;;;;;;17.20;10.53;;;8.30;1.00;;;;;;5054679;28;20169;-69
2023/12/18 05:04:50;;;;;;;18.80;10.73;;;8.20;1.00;;;;;;5052491;28;20179;-72
2023/12/18 05:07:16;;;;;;;17.20;10.87;;;8.20;1.00;;;;;;5056888;28;20204;-67
2023/12/18 05:09:42;;;;;;;15.70;10.17;;;8.20;1.00;;;;;;5072851;28;20182;-69
2023/12/18 05:12:07;;;;;;;14.77;10.67;;;8.20;1.00;;;;;;5074304;28;20171;-68
2023/12/18 05:14:33;;;;;;;21.03;12.13;;;8.20;1.00;;;;;;5072109;28;20170;-70
2023/12/18 05:16:59;;;;;;;11.87;10.07;;;8.20;1.00;;;;;;5073477;28;20228;-70
2023/12/18 05:19:24;;;;;;;9.67;8.27;;;8.20;1.00;;;;;;5053808;28;20567;-73
2023/12/18 05:21:50;;;;;;;11.60;10.40;;;8.20;1.00;;;;;;5056642;28;20647;-73
2023/12/18 05:24:16;;;;;;;14.03;10.93;;;8.20;1.00;;;;;;5074317;28;20255;-69
2023/12/18 05:26:41;;;;;;;18.10;10.13;;;8.20;1.00;;;;;;5069993;28;20183;-70
2023/12/18 05:29:07;;;;;;;15.40;10.17;;;8.20;1.00;;;;;;5062825;28;20259;-71
2023/12/18 05:31:32;;;;;;;18.63;12.80;;;8.20;1.00;;;;;;5052579;28;20651;-73
2023/12/18 05:33:58;;;;;;;16.73;11.60;;;8.10;1.00;;;;;;5069018;28;20521;-70
2023/12/18 05:36:24;;;;;;;17.30;11.43;;;8.20;1.00;;;;;;5072965;28;20252;-74
2023/12/18 05:38:50;;;;;;;16.07;10.83;;;8.10;1.00;;;;;;5055877;28;20209;-74
2023/12/18 05:41:15;;;;;;;13.93;10.33;;;8.20;1.00;;;;;;5055166;28;20655;-69
2023/12/18 05:43:41;;;;;;;13.40;11.20;;;8.10;1.00;;;;;;5054062;28;20763;-68
2023/12/18 05:46:11;;;;;;;20.30;11.40;;;8.10;1.00;;;;;;5051846;28;20529;-71
2023/12/18 05:48:37;;;;;;;15.60;11.30;;;8.10;1.00;;;;;;5052191;28;20276;-69
2023/12/18 05:51:02;;;;;;;17.27;11.83;;;8.10;1.00;;;;;;5053318;28;20926;-73
2023/12/18 05:53:28;;;;;;;13.03;11.47;;;8.10;1.00;;;;;;5053491;28;20177;-68
2023/12/18 05:55:54;;;;;;;16.63;12.30;;;8.10;1.00;;;;;;5050451;28;20207;-69
2023/12/18 05:58:20;;;;;;;18.07;12.10;;;8.10;1.00;;;;;;5066849;28;20454;-74
2023/12/18 06:00:45;;;;;;;23.13;11.80;;;8.10;1.00;;;;;;5061197;28;20263;-73
2023/12/18 06:03:11;;;;;;;12.67;9.90;;;8.10;1.00;;;;;;5054492;28;20525;-72
2023/12/18 06:05:37;;;;;;;18.53;11.70;;;8.10;1.00;;;;;;5051434;28;20305;-67
2023/12/18 06:08:03;;;;;;;28.60;12.73;;;8.10;1.00;;;;;;5070723;28;20278;-69
2023/12/18 06:10:29;;;;;;;13.10;10.33;;;8.10;1.00;;;;;;5061861;28;20182;-67
2023/12/18 06:12:54;;;;;;;15.00;10.80;;;8.10;1.00;;;;;;5056341;28;20429;-72
2023/12/18 06:15:20;;;;;;;15.97;9.30;;;8.10;1.00;;;;;;5057836;28;20238;-71
2023/12/18 06:17:45;;;;;;;17.10;11.70;;;8.10;1.00;;;;;;5077148;28;20670;-70
2023/12/18 06:20:11;;;;;;;21.23;9.97;;;8.00;1.00;;;;;;5073563;28;20631;-70
2023/12/18 06:22:37;;;;;;;19.70;11.63;;;8.10;1.00;;;;;;5066203;28;20175;-73
2023/12/18 06:25:03;;;;;;;17.83;11.97;;;8.10;1.00;;;;;;5056045;28;20187;-72
2023/12/18 06:27:29;;;;;;;17.30;12.50;;;8.10;1.00;;;;;;5068197;28;20195;-72
2023/12/18 06:29:54;;;;;;;14.30;11.40;;;8.10;1.00;;;;;;5062733;28;20420;-70
2023/12/18 06:32:20;;;;;;;20.10;12.90;;;8.00;1.00;;;;;;5062709;28;20685;-67
2023/12/18 06:34:46;;;;;;;17.83;12.10;;;8.10;1.00;;;;;;5076294;28;20159;-71
2023/12/18 06:37:12;;;;;;;24.13;13.13;;;8.10;1.00;;;;;;5075776;28;20194;-69
2023/12/18 06:39:37;;;;;;;20.60;12.97;;;8.10;1.00;;;;;;5077285;28;20559;-68
2023/12/18 06:42:03;;;;;;;17.50;12.50;;;8.10;1.00;;;;;;5076878;28;20407;-69
2023/12/18 06:44:29;;;;;;;19.10;12.27;;;8.10;1.00;;;;;;5075710;28;20259;-70
2023/12/18 06:46:55;;;;;;;20.57;13.83;;;8.10;1.00;;;;;;5076514;28;20399;-72
2023/12/18 06:49:20;;;;;;;21.30;13.10;;;8.10;1.00;;;;;;5076878;28;20656;-72
2023/12/18 06:51:49;;;;;;;15.87;12.40;;;8.10;1.00;;;;;;5060380;28;20190;-69
2023/12/18 06:54:15;;;;;;;22.07;13.67;;;8.10;1.00;;;;;;5057074;28;20221;-72
2023/12/18 06:56:41;;;;;;;18.17;12.00;;;8.10;1.00;;;;;;5055214;28;20421;-69
2023/12/18 06:59:07;;;;;;;16.87;11.70;;;8.10;1.00;;;;;;5056971;28;20480;-73
2023/12/18 07:01:33;;;;;;;16.50;12.37;;;8.10;1.00;;;;;;5047212;28;20207;-72
2023/12/18 07:03:59;;;;;;;15.90;12.30;;;8.10;1.00;;;;;;5035233;28;20388;-72
2023/12/18 07:06:25;;;;;;;13.73;10.77;;;8.10;1.00;;;;;;5048312;28;20216;-75
2023/12/18 07:08:50;;;;;;;20.27;12.47;;;8.10;1.00;;;;;;5056699;28;20790;-69
2023/12/18 07:11:16;;;;;;;19.20;11.17;;;8.10;1.00;;;;;;5056881;28;20195;-69
2023/12/18 07:13:42;;;;;;;16.97;12.00;;;8.10;1.00;;;;;;5055762;28;20226;-73
2023/12/18 07:16:07;;;;;;;16.10;12.07;;;8.10;1.00;;;;;;5055621;28;20167;-72
2023/12/18 07:18:33;;;;;;;16.83;12.40;;;8.10;1.00;;;;;;5056273;28;20220;-72
2023/12/18 07:20:59;;;;;;;17.90;12.40;;;8.10;1.00;;;;;;5056540;28;20240;-72
2023/12/18 07:23:25;;;;;;;17.63;12.00;;;8.10;1.00;;;;;;5056276;28;20164;-73
2023/12/18 07:25:50;;;;;;;15.80;10.63;;;8.20;1.00;;;;;;5055079;28;20436;-72
2023/12/18 07:28:16;;;;;;;15.97;11.37;;;8.20;1.00;;;;;;5056341;28;20687;-71
2023/12/18 07:30:43;;;;;;;12.10;10.80;;;8.20;1.00;;;;;;5056282;28;20209;-71
2023/12/18 07:33:09;;;;;;;15.43;11.70;;;8.20;1.00;;;;;;5055932;28;20408;-70
2023/12/18 07:35:35;;;;;;;14.77;10.03;;;8.20;1.00;;;;;;5055790;28;20409;-71
2023/12/18 07:38:00;;;;;;;14.10;10.50;;;8.20;1.00;;;;;;5056150;28;20455;-72
2023/12/18 07:40:26;;;;;;;14.80;10.00;;;8.30;1.00;;;;;;5055728;28;20171;-72
2023/12/18 07:42:52;;;;;;;14.33;9.93;;;8.30;1.00;;;;;;5056420;28;20182;-69
2023/12/18 07:45:18;;;;;;;12.37;11.00;;;8.30;1.00;;;;;;5055383;28;20201;-70
2023/12/18 07:47:43;;;;;;;14.80;10.73;;;8.30;1.00;;;;;;5054638;28;20202;-69
2023/12/18 07:50:09;;;;;;;12.70;10.47;;;8.30;1.00;;;;;;5056328;28;20382;-70
2023/12/18 07:52:35;;;;;;;16.97;9.83;;;8.20;1.00;;;;;;5056731;28;20189;-71
2023/12/18 07:55:02;;;;;;;9.90;8.73;;;8.30;1.00;;;;;;5054228;28;20425;-72
2023/12/18 07:57:28;;;;;;;12.47;8.90;;;8.30;1.00;;;;;;5054296;28;20584;-71
2023/12/18 07:59:54;;;;;;;14.70;9.23;;;8.30;1.00;;;;;;5055705;28;20491;-70
2023/12/18 08:02:21;;;;;;;13.23;8.37;;;8.30;1.00;;;;;;5055305;28;20168;-72
2023/12/18 08:04:46;;;;;;;13.50;8.70;;;8.20;1.00;;;;;;5054517;28;20389;-71
2023/12/18 08:07:12;;;;;;;12.60;9.67;;;8.20;1.00;;;;;;5055804;28;20434;-72
2023/12/18 08:09:38;;;;;;;8.23;7.40;;;8.30;1.00;;;;;;5055241;28;20178;-70
2023/12/18 08:12:04;;;;;;;9.13;8.30;;;8.30;1.00;;;;;;5055197;28;20171;-72
2023/12/18 08:14:30;;;;;;;10.03;7.97;;;8.30;1.00;;;;;;5054780;28;20180;-75
2023/12/18 08:16:55;;;;;;;11.63;9.57;;;8.30;1.00;;;;;;5055162;28;20409;-72
2023/12/18 08:19:21;;;;;;;16.33;10.43;;;8.30;1.00;;;;;;5055798;28;20583;-69
2023/12/18 08:21:47;;;;;;;10.97;7.70;;;8.30;1.00;;;;;;5055369;28;20541;-71
2023/12/18 08:24:12;;;;;;;10.70;8.90;;;8.30;1.00;;;;;;5057342;28;20918;-71
2023/12/18 08:26:38;;;;;;;13.00;9.40;;;8.30;1.00;;;;;;5053529;28;20246;-71
2023/12/18 08:29:04;;;;;;;10.00;8.80;;;8.40;1.00;;;;;;5048260;28;20602;-69
2023/12/18 08:31:30;;;;;;;15.77;9.57;;;8.30;1.00;;;;;;5051850;28;20201;-72
2023/12/18 08:33:56;;;;;;;14.33;8.50;;;8.40;1.00;;;;;;5051672;28;20437;-67
2023/12/18 08:36:22;;;;;;;12.63;9.90;;;8.40;1.00;;;;;;5054981;28;20475;-67
2023/12/18 08:38:47;;;;;;;20.30;9.30;;;8.40;1.00;;;;;;5054936;28;20547;-72
2023/12/18 08:41:13;;;;;;;14.67;9.50;;;8.30;1.00;;;;;;5046072;28;20190;-68
2023/12/18 08:43:39;;;;;;;13.17;8.87;;;8.30;1.00;;;;;;5050206;28;20184;-67
2023/12/18 08:46:06;;;;;;;9.03;8.13;;;8.30;1.00;;;;;;5059213;28;20179;-70
2023/12/18 08:48:31;;;;;;;11.33;9.20;;;8.30;1.00;;;;;;5052185;28;20441;-68
2023/12/18 08:50:57;;;;;;;10.20;8.60;;;8.30;1.00;;;;;;5055298;28;20417;-69
2023/12/18 08:53:23;;;;;;;14.90;10.00;;;8.40;1.00;;;;;;5056214;28;20648;-69
2023/12/18 08:55:48;;;;;;;20.00;13.97;;;8.30;1.00;;;;;;5055027;28;20303;-69
2023/12/18 08:58:14;;;;;;;14.93;9.13;;;8.30;1.00;;;;;;5054217;28;20287;-70
2023/12/18 09:00:40;;;;;;;16.00;10.90;;;8.30;1.00;;;;;;5053860;28;20175;-72
2023/12/18 09:03:06;;;;;;;10.50;9.50;;;8.30;1.00;;;;;;5045161;28;20624;-72
2023/12/18 09:05:32;;;;;;;14.33;10.30;;;8.30;1.00;;;;;;5067641;28;20177;-67
2023/12/18 09:07:57;;;;;;;18.17;10.60;;;8.20;1.00;;;;;;5041751;28;20251;-71
2023/12/18 09:10:24;;;;;;;15.10;10.40;;;8.30;1.00;;;;;;5051073;28;20417;-66
2023/12/18 09:12:52;;;;;;;18.80;12.40;;;8.30;1.00;;;;;;5055741;28;20179;-71
2023/12/18 09:15:18;;;;;;;15.37;9.07;;;8.30;1.00;;;;;;5056608;28;20411;-68
2023/12/18 09:17:44;;;;;;;17.83;11.63;;;8.30;1.00;;;;;;5052029;28;20504;-69
2023/12/18 09:20:10;;;;;;;18.23;12.30;;;8.30;1.00;;;;;;5062913;28;20409;-68
2023/12/18 09:22:36;;;;;;;16.57;11.17;;;8.30;1.00;;;;;;5058054;28;20543;-70
2023/12/18 09:25:03;;;;;;;13.90;11.47;;;8.30;1.00;;;;;;5052940;28;20539;-70
2023/12/18 09:27:28;;;;;;;20.43;8.37;;;8.30;1.00;;;;;;5051942;28;20954;-67
2023/12/18 09:29:54;;;;;;;12.73;10.37;;;8.30;1.00;;;;;;5059170;28;20432;-67
2023/12/18 09:32:20;;;;;;;16.63;10.10;;;8.30;1.00;;;;;;5065365;28;20442;-69
2023/12/18 09:34:46;;;;;;;13.33;10.30;;;8.30;1.00;;;;;;5067568;28;20412;-71
2023/12/18 09:37:12;;;;;;;18.93;10.50;;;8.30;1.00;;;;;;5068448;28;20249;-67
2023/12/18 09:39:41;;;;;;;17.53;9.47;;;8.30;1.00;;;;;;5059023;28;20209;-70
2023/12/18 09:42:09;;;;;;;18.70;10.30;;;8.30;1.00;;;;;;5053122;28;20168;-71
2023/12/18 09:44:35;;;;;;;20.13;11.60;;;8.30;1.00;;;;;;5051347;28;20410;-74
2023/12/18 09:47:02;;;;;;;18.80;13.30;;;8.30;1.00;;;;;;5052907;28;20433;-70
2023/12/18 09:49:27;;;;;;;16.60;10.70;;;8.40;1.00;;;;;;5052668;28;20453;-68
2023/12/18 09:51:54;;;;;;;15.93;10.57;;;8.30;1.00;;;;;;5052088;28;20434;-71
2023/12/18 09:54:25;;;;;;;19.97;12.27;;;8.30;1.00;;;;;;5052122;28;20446;-66
2023/12/18 09:56:52;;;;;;;17.40;10.90;;;8.40;1.00;;;;;;5058232;28;20440;-72
2023/12/18 09:59:18;;;;;;;16.13;10.70;;;8.40;1.00;;;;;;5061679;28;20543;-67
2023/12/18 10:01:46;;;;;;;16.67;12.20;;;8.40;1.00;;;;;;5053981;28;21146;-68
2023/12/18 10:04:13;;;;;;;13.37;11.17;;;8.40;1.00;;;;;;5053359;28;20178;-71
2023/12/18 10:06:39;;;;;;;17.63;10.83;;;8.40;1.00;;;;;;5071639;28;20433;-70
2023/12/18 10:09:12;;;;;;;21.27;13.53;;;8.40;1.00;;;;;;5049563;28;20548;-69
2023/12/18 10:11:38;;;;;;;23.70;12.17;;;8.40;1.00;;;;;;5058224;28;20789;-67
2023/12/18 10:14:04;;;;;;;13.37;11.33;;;8.40;1.00;;;;;;5067414;28;20427;-71
2023/12/18 10:16:32;;;;;;;18.33;9.97;;;8.50;1.00;;;;;;5065338;28;20592;-73
2023/12/18 10:18:58;;;;;;;15.20;10.00;;;8.50;1.00;;;;;;5052671;28;20199;-67
2023/12/18 10:21:24;;;;;;;14.50;10.60;;;8.40;1.00;;;;;;5061783;28;20426;-69
2023/12/18 10:23:54;;;;;;;17.73;9.50;;;8.50;1.00;;;;;;5065825;28;20968;-68
2023/12/18 10:26:20;;;;;;;15.83;11.13;;;8.60;1.00;;;;;;5054098;28;20929;-73
2023/12/18 10:28:52;;;;;;;12.63;11.00;;;8.60;1.00;;;;;;5060974;28;20536;-72
2023/12/18 10:31:19;;;;;;;13.13;10.80;;;8.60;1.00;;;;;;5064728;28;20883;-69
2023/12/18 10:33:45;;;;;;;12.70;9.47;;;8.50;1.00;;;;;;5058916;28;20437;-69
2023/12/18 10:36:11;;;;;;;11.70;10.10;;;8.50;1.00;;;;;;5054468;28;20797;-67
2023/12/18 10:38:41;;;;;;;14.47;10.83;;;8.60;1.00;;;;;;5070787;28;20556;-74
2023/12/18 10:41:09;;;;;;;8.60;7.80;;;8.70;1.00;;;;;;5053913;28;20453;-70
2023/12/18 10:43:35;;;;;;;12.10;10.63;;;8.60;1.00;;;;;;5054735;28;20506;-71
2023/12/18 10:46:03;;;;;;;16.67;11.37;;;8.60;1.00;;;;;;5063746;28;20426;-71
2023/12/18 10:48:29;;;;;;;12.20;10.87;;;8.60;1.00;;;;;;5060461;28;20446;-72
2023/12/18 10:50:57;;;;;;;12.83;8.83;;;8.70;1.00;;;;;;5061279;28;21000;-71
2023/12/18 10:53:27;;;;;;;16.80;11.80;;;8.70;1.00;;;;;;5060154;28;20837;-71
2023/12/18 10:55:53;;;;;;;26.07;12.03;;;8.60;1.00;;;;;;5048067;28;20438;-67
2023/12/18 10:58:20;;;;;;;18.57;12.60;;;8.50;1.00;;;;;;5051087;28;20466;-71
2023/12/18 11:00:46;;;;;;;16.50;12.80;;;8.50;1.00;;;;;;5056505;28;20923;-67
2023/12/18 11:03:13;;;;;;;19.57;12.60;;;8.50;1.00;;;;;;5047212;28;21004;-68
2023/12/18 11:05:41;;;;;;;23.20;13.57;;;8.50;1.00;;;;;;5038119;28;20410;-73
2023/12/18 11:08:07;;;;;;;18.43;12.30;;;8.50;1.00;;;;;;5055154;28;20983;-69
2023/12/18 11:10:33;;;;;;;18.93;13.10;;;8.50;1.00;;;;;;5064344;28;20407;-67
2023/12/18 11:13:22;;;;;;;22.47;13.97;;;8.50;1.00;;;;;;5076786;28;20458;-73
2023/12/18 11:16:06;;;;;;;24.40;15.00;;;8.50;1.00;;;;;;5066450;28;20957;-71
2023/12/18 11:18:38;;;;;;;20.93;13.73;;;8.50;1.00;;;;;;5054420;28;20444;-70
2023/12/18 11:21:04;;;;;;;26.07;14.97;;;8.50;1.00;;;;;;5048440;28;20434;-71
2023/12/18 11:23:40;;;;;;;20.33;14.27;;;8.50;1.00;;;;;;5056207;28;20758;-71
2023/12/18 11:26:10;;;;;;;23.33;15.00;;;8.50;1.00;;;;;;5055932;28;20508;-70
2023/12/18 11:28:36;;;;;;;18.57;12.60;;;8.50;1.00;;;;;;5059534;28;20463;-70
2023/12/18 11:31:02;;;;;;;18.73;15.73;;;8.50;1.00;;;;;;5065424;28;20778;-70
2023/12/18 11:33:29;;;;;;;28.43;15.83;;;8.50;1.00;;;;;;5048062;28;20437;-70
2023/12/18 11:35:56;;;;;;;21.83;14.37;;;8.50;1.00;;;;;;5067118;28;20953;-66
2023/12/18 11:38:24;;;;;;;18.90;13.23;;;8.50;1.00;;;;;;5069098;28;20460;-68
2023/12/18 11:40:52;;;;;;;26.23;17.67;;;8.50;1.00;;;;;;5055818;28;20820;-67
2023/12/18 11:43:35;;;;;;;25.90;17.00;;;8.50;1.00;;;;;;5055324;28;20390;-68
2023/12/18 11:46:03;;;;;;;19.80;14.37;;;8.50;1.00;;;;;;5054409;28;20467;-72
2023/12/18 11:48:29;;;;;;;23.43;15.87;;;8.40;1.00;;;;;;5057310;28;20433;-72
2023/12/18 11:50:55;;;;;;;21.97;13.70;;;8.50;1.00;;;;;;5055485;28;20406;-72
2023/12/18 11:53:23;;;;;;;21.03;15.53;;;8.50;1.00;;;;;;5055386;28;20423;-70
2023/12/18 11:55:54;;;;;;;24.53;15.40;;;8.50;1.00;;;;;;5054684;28;20244;-69
2023/12/18 11:58:24;;;;;;;15.80;11.67;;;8.50;1.00;;;;;;5055582;28;20453;-69
2023/12/18 12:00:50;;;;;;;15.63;10.27;;;8.50;1.00;;;;;;5054460;28;20507;-70
2023/12/18 12:03:16;;;;;;;21.63;15.90;;;8.50;1.00;;;;;;5044929;28;20858;-69
2023/12/18 12:05:43;;;;;;;21.03;15.70;;;8.50;1.00;;;;;;5042282;28;20438;-66
2023/12/18 12:08:09;;;;;;;23.90;15.37;;;8.50;1.00;;;;;;5052668;28;20412;-68
2023/12/18 12:10:40;;;;;;;14.43;11.47;;;8.60;1.00;;;;;;5061577;28;20472;-71
2023/12/18 12:13:06;;;;;;;14.37;10.93;;;8.50;1.00;;;;;;5066750;28;20436;-66
2023/12/18 12:15:32;;;;;;;20.00;15.37;;;8.50;1.00;;;;;;5055851;28;20458;-68
2023/12/18 12:18:04;;;;;;;22.83;16.43;;;8.50;1.00;;;;;;5042309;28;21050;-66
2023/12/18 12:20:31;;;;;;;23.37;12.97;;;8.60;1.00;;;;;;5040718;28;21723;-70
2023/12/18 12:22:57;;;;;;;25.63;16.03;;;8.50;1.00;;;;;;5059965;28;20428;-66
2023/12/18 12:25:23;;;;;;;21.67;15.67;;;8.50;1.00;;;;;;5069490;28;20473;-66
2023/12/18 12:27:50;;;;;;;24.60;15.73;;;8.50;1.00;;;;;;5062359;28;20446;-68
2023/12/18 12:30:19;;;;;;;22.80;15.47;;;8.50;1.00;;;;;;5062092;28;20426;-69
2023/12/18 12:32:48;;;;;;;24.00;16.33;;;8.50;1.00;;;;;;5045645;28;20435;-70
2023/12/18 12:35:16;;;;;;;18.07;12.73;;;8.50;1.00;;;;;;5052119;28;20419;-69
2023/12/18 12:37:42;;;;;;;25.77;16.30;;;8.40;1.00;;;;;;5050995;28;21058;-67
2023/12/18 12:40:09;;;;;;;14.87;10.30;;;8.40;1.00;;;;;;5054672;28;20439;-68
2023/12/18 12:42:38;;;;;;;19.30;14.63;;;8.40;1.00;;;;;;5058854;28;20439;-67
2023/12/18 12:45:09;;;;;;;24.60;16.03;;;8.50;1.00;;;;;;5044486;28;20439;-71